Time;durP1;ratioP1;P1;durP2;ratioP2;P2;SDS_P1;SDS_P2;PMS_P1;PMS_P2;Temp;Humidity;BMP_temperature;BMP_pressure;BME280_temperature;BME280_humidity;BME280_pressure;Samples;Min_cycle;Max_cycle;Signal;HPM_P1;HPM_P2
2022/02/25 00:00:16;;;;;;;14.97;3.00;;;6.10;99.90;;;;;;6205650;23;20177;-79
2022/02/25 00:02:43;;;;;;;13.07;2.90;;;6.10;99.90;;;;;;6204897;23;20574;-80
2022/02/25 00:05:10;;;;;;;11.47;2.47;;;6.20;99.90;;;;;;6204249;23;20201;-78
2022/02/25 00:07:37;;;;;;;21.57;2.93;;;6.10;99.90;;;;;;6204614;23;20198;-79
2022/02/25 00:10:05;;;;;;;8.77;2.90;;;6.00;99.90;;;;;;6202911;23;20178;-77
2022/02/25 00:12:32;;;;;;;16.23;3.20;;;6.00;99.90;;;;;;6203935;23;20178;-78
2022/02/25 00:15:00;;;;;;;11.20;3.33;;;6.00;99.90;;;;;;6203519;23;20204;-80
2022/02/25 00:17:28;;;;;;;13.57;2.80;;;5.90;99.90;;;;;;6204206;23;20202;-78
2022/02/25 00:19:55;;;;;;;13.50;3.57;;;5.90;99.90;;;;;;6202684;23;20173;-79
2022/02/25 00:22:22;;;;;;;10.80;2.80;;;5.90;99.90;;;;;;6204307;23;20578;-78
2022/02/25 00:24:48;;;;;;;13.37;3.53;;;6.00;99.90;;;;;;6203548;23;20174;-78
2022/02/25 00:27:15;;;;;;;17.80;3.60;;;6.00;99.90;;;;;;6203612;23;20453;-78
2022/02/25 00:29:42;;;;;;;19.70;3.53;;;6.00;99.90;;;;;;6205365;23;20178;-77
2022/02/25 00:32:10;;;;;;;12.07;3.00;;;6.00;99.90;;;;;;6206053;23;20170;-77
2022/02/25 00:34:38;;;;;;;20.90;3.83;;;5.90;99.90;;;;;;6206414;23;20182;-79
2022/02/25 00:37:05;;;;;;;19.30;3.53;;;5.90;99.90;;;;;;6207205;23;20194;-79
2022/02/25 00:39:32;;;;;;;14.77;3.53;;;5.80;99.90;;;;;;6206393;23;20170;-78
2022/02/25 00:41:59;;;;;;;14.70;3.80;;;5.90;99.90;;;;;;6204823;23;20174;-79
2022/02/25 00:44:26;;;;;;;20.07;3.40;;;5.80;99.90;;;;;;6207835;23;20170;-81
2022/02/25 00:46:52;;;;;;;18.00;4.43;;;5.80;99.90;;;;;;6206586;23;20177;-82
2022/02/25 00:49:19;;;;;;;14.43;4.03;;;5.80;99.90;;;;;;6206810;23;20173;-80
2022/02/25 00:51:47;;;;;;;12.30;3.17;;;5.80;99.90;;;;;;6207044;23;20178;-80
2022/02/25 00:54:14;;;;;;;14.47;3.27;;;5.80;99.90;;;;;;6207759;23;20174;-81
2022/02/25 00:56:41;;;;;;;19.30;4.00;;;5.90;99.90;;;;;;6207573;23;20178;-80
2022/02/25 00:59:08;;;;;;;12.87;2.57;;;5.80;99.90;;;;;;6208152;23;20182;-80
2022/02/25 01:01:35;;;;;;;19.00;4.20;;;5.80;99.90;;;;;;6205987;23;20173;-80
2022/02/25 01:04:01;;;;;;;16.17;3.30;;;5.80;99.90;;;;;;6206053;23;20444;-77
2022/02/25 01:06:28;;;;;;;12.13;3.33;;;5.80;99.90;;;;;;6207022;23;20182;-80
2022/02/25 01:08:56;;;;;;;11.53;3.10;;;5.80;99.90;;;;;;6206299;23;20202;-80
2022/02/25 01:11:23;;;;;;;15.47;3.43;;;5.70;99.90;;;;;;6206256;23;20181;-81
2022/02/25 01:13:50;;;;;;;22.50;4.40;;;5.80;99.90;;;;;;6207215;23;20602;-81
2022/02/25 01:16:17;;;;;;;13.80;3.97;;;5.80;99.90;;;;;;6206749;23;20178;-79
2022/02/25 01:18:43;;;;;;;15.30;4.03;;;5.80;99.90;;;;;;6205987;23;20197;-79
2022/02/25 01:21:10;;;;;;;14.70;3.33;;;5.80;99.90;;;;;;6207897;23;20598;-81
2022/02/25 01:23:37;;;;;;;14.70;3.80;;;5.90;99.90;;;;;;6208183;23;20178;-79
2022/02/25 01:26:05;;;;;;;12.70;2.93;;;5.90;99.90;;;;;;6207746;23;20182;-80
2022/02/25 01:28:34;;;;;;;15.27;3.20;;;5.90;99.90;;;;;;6207196;23;20173;-80
2022/02/25 01:31:02;;;;;;;10.90;3.90;;;5.90;99.90;;;;;;6207068;23;20173;-82
2022/02/25 01:33:28;;;;;;;17.83;3.77;;;5.90;99.90;;;;;;6207141;23;20185;-82
2022/02/25 01:35:55;;;;;;;16.83;3.47;;;5.90;99.90;;;;;;6207308;23;20170;-80
2022/02/25 01:38:22;;;;;;;10.47;2.90;;;5.80;99.90;;;;;;6206856;23;20236;-81
2022/02/25 01:40:50;;;;;;;18.90;3.90;;;5.80;99.90;;;;;;6205815;23;20185;-81
2022/02/25 01:43:18;;;;;;;10.60;2.77;;;5.70;99.90;;;;;;6205763;23;20213;-78
2022/02/25 01:45:45;;;;;;;13.53;3.70;;;5.70;99.90;;;;;;6205077;23;20178;-78
2022/02/25 01:48:11;;;;;;;14.87;4.60;;;5.70;99.90;;;;;;6205355;23;20170;-80
2022/02/25 01:50:39;;;;;;;12.40;3.13;;;5.70;99.90;;;;;;6205352;23;20175;-79
2022/02/25 01:53:08;;;;;;;12.17;3.70;;;5.70;99.90;;;;;;6205265;23;20178;-78
2022/02/25 01:55:38;;;;;;;12.87;4.23;;;5.60;99.90;;;;;;6205150;23;20166;-79
2022/02/25 01:58:06;;;;;;;18.57;5.10;;;5.70;99.90;;;;;;6204618;23;20252;-78
2022/02/25 02:00:35;;;;;;;21.00;4.60;;;5.70;99.90;;;;;;6205848;23;20174;-79
2022/02/25 02:03:01;;;;;;;14.57;3.33;;;5.70;99.90;;;;;;6205448;23;20173;-79
2022/02/25 02:05:28;;;;;;;22.50;4.67;;;5.70;99.90;;;;;;6205229;23;20549;-77
2022/02/25 02:07:55;;;;;;;14.07;3.30;;;5.70;99.90;;;;;;6204279;23;20198;-78
2022/02/25 02:10:22;;;;;;;19.47;4.10;;;5.60;99.90;;;;;;6205374;23;20174;-78
2022/02/25 02:12:49;;;;;;;19.47;3.40;;;5.60;99.90;;;;;;6204614;23;20174;-78
2022/02/25 02:15:16;;;;;;;15.93;4.47;;;5.60;99.90;;;;;;6205371;23;20181;-79
2022/02/25 02:17:44;;;;;;;15.60;3.53;;;5.60;99.90;;;;;;6205179;23;20217;-78
2022/02/25 02:20:11;;;;;;;15.57;3.50;;;5.70;99.90;;;;;;6205160;23;20177;-79
2022/02/25 02:22:40;;;;;;;16.00;3.70;;;5.70;99.90;;;;;;6204744;23;20170;-79
2022/02/25 02:25:07;;;;;;;16.40;3.07;;;5.80;99.90;;;;;;6206194;23;20575;-78
2022/02/25 02:30:20;;;;;;;18.97;3.53;;;5.80;99.90;;;;;;6205215;23;20168;-79
2022/02/25 02:32:47;;;;;;;14.03;3.03;;;5.80;99.90;;;;;;6204125;23;20178;-79
2022/02/25 02:35:14;;;;;;;17.13;3.87;;;5.90;99.90;;;;;;6206014;23;20166;-80
2022/02/25 02:37:42;;;;;;;21.43;3.30;;;5.90;99.90;;;;;;6206786;23;20198;-82
2022/02/25 02:40:10;;;;;;;11.60;3.20;;;5.90;99.90;;;;;;6206981;23;20186;-80
2022/02/25 02:42:37;;;;;;;18.07;3.97;;;5.90;99.90;;;;;;6206057;23;20442;-81
2022/02/25 02:45:04;;;;;;;17.93;4.17;;;6.00;99.90;;;;;;6205330;23;20178;-79
2022/02/25 02:47:31;;;;;;;11.30;3.60;;;5.90;99.90;;;;;;6203124;23;20174;-79
2022/02/25 02:49:58;;;;;;;18.83;4.40;;;6.00;99.90;;;;;;6204790;23;20178;-77
2022/02/25 02:52:25;;;;;;;14.17;3.50;;;5.90;99.90;;;;;;6204874;23;20566;-77
2022/02/25 02:54:53;;;;;;;16.10;3.63;;;5.90;99.90;;;;;;6204380;23;20171;-78
2022/02/25 02:57:22;;;;;;;16.30;3.97;;;5.90;99.90;;;;;;6204949;23;20194;-78
2022/02/25 02:59:49;;;;;;;24.70;4.90;;;5.90;99.90;;;;;;6204464;23;20233;-78
2022/02/25 03:02:16;;;;;;;15.07;3.93;;;5.90;99.90;;;;;;6204489;23;20185;-78
2022/02/25 03:04:43;;;;;;;16.67;3.77;;;5.90;99.90;;;;;;6203743;23;20649;-77
2022/02/25 03:07:11;;;;;;;13.33;4.37;;;5.80;99.90;;;;;;6205113;23;20182;-77
2022/02/25 03:09:38;;;;;;;14.93;3.67;;;5.80;99.90;;;;;;6204527;23;20174;-77
2022/02/25 03:12:07;;;;;;;15.83;4.47;;;5.80;99.90;;;;;;6204426;23;20174;-79
2022/02/25 03:14:36;;;;;;;24.60;5.43;;;5.80;99.90;;;;;;6204128;23;20426;-78
2022/02/25 03:17:03;;;;;;;25.30;4.27;;;5.80;99.90;;;;;;6203966;23;20173;-77
2022/02/25 03:19:30;;;;;;;18.07;3.83;;;5.80;99.90;;;;;;6204662;23;20202;-78
2022/02/25 03:21:56;;;;;;;12.83;3.13;;;5.80;99.90;;;;;;6204304;23;20174;-79
2022/02/25 03:24:23;;;;;;;33.93;4.23;;;5.90;99.90;;;;;;6203947;23;20166;-78
2022/02/25 03:26:50;;;;;;;18.27;4.33;;;5.90;99.90;;;;;;6203857;23;20182;-79
2022/02/25 03:29:18;;;;;;;17.30;4.53;;;5.90;99.90;;;;;;6203861;23;20193;-78
2022/02/25 03:31:45;;;;;;;19.73;5.07;;;5.90;99.90;;;;;;6203661;23;20185;-78
2022/02/25 03:34:12;;;;;;;18.77;3.87;;;5.90;99.90;;;;;;6204394;23;20166;-78
2022/02/25 03:36:39;;;;;;;25.30;4.40;;;6.00;99.90;;;;;;6204653;23;20632;-81
2022/02/25 03:39:06;;;;;;;17.90;3.27;;;6.10;99.90;;;;;;6204204;23;20200;-78
2022/02/25 03:41:33;;;;;;;16.37;4.67;;;6.10;99.90;;;;;;6204159;23;20194;-78
2022/02/25 03:44:00;;;;;;;13.93;3.77;;;6.20;99.90;;;;;;6203803;23;20456;-78
2022/02/25 03:46:29;;;;;;;17.00;3.60;;;6.20;99.90;;;;;;6204174;23;20166;-80
2022/02/25 03:48:55;;;;;;;15.70;4.37;;;6.30;99.90;;;;;;6203852;23;20169;-78
2022/02/25 03:51:23;;;;;;;19.70;4.47;;;6.30;99.90;;;;;;6204808;23;20181;-78
2022/02/25 03:53:50;;;;;;;17.00;4.47;;;6.20;99.90;;;;;;6204129;23;20185;-78
2022/02/25 03:56:18;;;;;;;19.37;4.40;;;6.30;99.90;;;;;;6204217;23;20181;-78
2022/02/25 03:58:45;;;;;;;17.70;3.80;;;6.30;99.90;;;;;;6204324;23;20468;-78
2022/02/25 04:01:11;;;;;;;17.20;5.27;;;6.30;99.90;;;;;;6204333;23;20182;-78
2022/02/25 04:03:40;;;;;;;22.83;4.30;;;6.30;99.90;;;;;;6203361;23;20170;-80
2022/02/25 04:06:06;;;;;;;21.23;4.33;;;6.30;99.90;;;;;;6204621;23;20174;-79
2022/02/25 04:08:34;;;;;;;20.03;4.80;;;6.30;99.90;;;;;;6204329;23;20281;-79
2022/02/25 04:11:01;;;;;;;18.17;5.03;;;6.30;99.90;;;;;;6203984;23;20208;-80
2022/02/25 04:13:28;;;;;;;19.90;4.40;;;6.40;99.90;;;;;;6204538;23;20166;-80
2022/02/25 04:15:54;;;;;;;23.90;5.63;;;6.50;99.90;;;;;;6203369;23;20181;-79
2022/02/25 04:18:21;;;;;;;17.63;5.53;;;6.50;99.90;;;;;;6203239;23;20190;-79
2022/02/25 04:20:49;;;;;;;18.60;4.10;;;6.50;99.90;;;;;;6203363;23;20185;-78
2022/02/25 04:23:16;;;;;;;20.37;5.73;;;6.50;99.90;;;;;;6203552;23;20174;-78
2022/02/25 04:25:43;;;;;;;23.57;5.83;;;6.50;99.90;;;;;;6203030;23;20185;-78
2022/02/25 04:28:11;;;;;;;19.73;5.07;;;6.50;99.90;;;;;;6203873;23;20185;-78
2022/02/25 04:30:38;;;;;;;26.73;4.27;;;6.50;99.90;;;;;;6204131;23;20178;-79
2022/02/25 04:33:05;;;;;;;21.80;4.97;;;6.60;99.90;;;;;;6203013;23;20817;-78
2022/02/25 04:35:32;;;;;;;18.37;3.77;;;6.60;99.90;;;;;;6203461;23;20178;-78
2022/02/25 04:38:00;;;;;;;18.30;4.33;;;6.60;99.90;;;;;;6203414;23;20170;-78
2022/02/25 04:40:27;;;;;;;17.87;3.73;;;6.60;99.90;;;;;;6203654;23;20169;-78
2022/02/25 04:42:54;;;;;;;19.50;4.00;;;6.60;99.90;;;;;;6203264;23;20177;-79
2022/02/25 04:45:21;;;;;;;17.87;4.00;;;6.60;99.90;;;;;;6202496;23;20178;-80
2022/02/25 04:47:48;;;;;;;15.77;4.03;;;6.50;99.90;;;;;;6203285;23;20170;-79
2022/02/25 04:50:16;;;;;;;19.40;4.13;;;6.50;99.90;;;;;;6203408;23;20166;-79
2022/02/25 04:52:44;;;;;;;20.47;4.17;;;6.50;99.90;;;;;;6203986;23;20197;-78
2022/02/25 04:55:13;;;;;;;16.70;4.90;;;6.50;99.90;;;;;;6203957;23;20171;-78
2022/02/25 04:57:40;;;;;;;21.40;4.33;;;6.50;99.90;;;;;;6203126;23;20190;-78
2022/02/25 05:00:10;;;;;;;14.40;4.23;;;6.50;99.90;;;;;;6203421;23;20925;-77
2022/02/25 05:02:38;;;;;;;20.10;4.13;;;6.40;99.90;;;;;;6203930;23;20172;-78
2022/02/25 05:05:05;;;;;;;19.43;4.40;;;6.40;99.90;;;;;;6204380;23;20559;-78
2022/02/25 05:07:33;;;;;;;18.27;4.93;;;6.40;99.90;;;;;;6203435;23;20217;-76
2022/02/25 05:10:00;;;;;;;16.13;3.97;;;6.40;99.90;;;;;;6204621;23;20170;-77
2022/02/25 05:12:28;;;;;;;17.23;3.53;;;6.50;99.90;;;;;;6203233;23;20185;-78
2022/02/25 05:20:32;;;;;;;23.90;5.03;;;6.50;99.90;;;;;;6205990;23;20170;-76
2022/02/25 05:23:00;;;;;;;17.83;3.30;;;6.50;99.90;;;;;;6205476;23;20174;-77
2022/02/25 05:25:28;;;;;;;15.43;3.37;;;6.50;99.90;;;;;;6205129;23;20176;-77
2022/02/25 05:27:57;;;;;;;20.37;5.60;;;6.40;99.90;;;;;;6205594;23;20174;-79
2022/02/25 05:30:24;;;;;;;16.40;4.13;;;6.40;99.90;;;;;;6204037;23;20174;-77
2022/02/25 05:32:52;;;;;;;25.87;3.97;;;6.40;99.90;;;;;;6206067;23;20178;-76
2022/02/25 05:35:20;;;;;;;12.23;3.57;;;6.40;99.90;;;;;;6205498;23;20842;-79
2022/02/25 05:37:48;;;;;;;13.17;3.47;;;6.40;99.90;;;;;;6204826;23;20551;-78
2022/02/25 05:40:17;;;;;;;14.47;3.47;;;6.40;99.90;;;;;;6205271;23;20194;-78
2022/02/25 05:42:45;;;;;;;16.47;3.30;;;6.40;99.90;;;;;;6205297;23;20206;-80
2022/02/25 05:45:14;;;;;;;15.27;3.50;;;6.40;99.90;;;;;;6205054;23;20167;-79
2022/02/25 05:47:42;;;;;;;11.27;3.43;;;6.50;99.90;;;;;;6204589;23;20170;-77
2022/02/25 05:50:12;;;;;;;21.77;4.30;;;6.50;99.90;;;;;;6204646;23;20174;-77
2022/02/25 05:52:40;;;;;;;6.53;2.83;;;6.50;99.90;;;;;;6205541;23;20174;-77
2022/02/25 05:55:07;;;;;;;17.50;3.70;;;6.50;99.90;;;;;;6205692;23;20188;-76
2022/02/25 05:57:34;;;;;;;15.77;3.20;;;6.50;99.90;;;;;;6204703;23;20198;-78
2022/02/25 06:00:01;;;;;;;16.40;4.03;;;6.50;99.90;;;;;;6205063;23;20198;-77
2022/02/25 06:02:29;;;;;;;15.27;3.57;;;6.50;99.90;;;;;;6205687;23;20217;-80
2022/02/25 06:04:56;;;;;;;15.40;3.37;;;6.50;99.90;;;;;;6205572;23;20174;-80
2022/02/25 06:07:23;;;;;;;16.57;3.37;;;6.50;99.90;;;;;;6205842;23;20202;-77
2022/02/25 06:09:50;;;;;;;14.70;3.60;;;6.50;99.90;;;;;;6206221;23;20170;-78
2022/02/25 06:12:16;;;;;;;18.10;4.27;;;6.60;99.90;;;;;;6205590;23;20228;-79
2022/02/25 06:14:44;;;;;;;15.67;3.47;;;6.60;99.90;;;;;;6206329;23;20178;-79
2022/02/25 06:17:10;;;;;;;24.20;4.50;;;6.60;99.90;;;;;;6205730;23;20672;-78
2022/02/25 06:19:39;;;;;;;18.97;3.23;;;6.60;99.90;;;;;;6204272;23;20197;-79
2022/02/25 06:22:06;;;;;;;18.93;3.70;;;6.70;99.90;;;;;;6204922;23;20181;-79
2022/02/25 06:24:33;;;;;;;19.40;4.07;;;6.70;99.90;;;;;;6205581;23;20838;-80
2022/02/25 06:27:00;;;;;;;19.63;4.10;;;6.70;99.90;;;;;;6203808;23;20576;-78
2022/02/25 06:29:26;;;;;;;17.60;3.80;;;6.70;99.90;;;;;;6205520;23;20176;-78
2022/02/25 06:31:53;;;;;;;18.33;4.33;;;6.70;99.90;;;;;;6204799;23;20582;-78
2022/02/25 06:34:20;;;;;;;20.57;4.00;;;6.70;99.90;;;;;;6205723;23;20179;-77
2022/02/25 06:36:48;;;;;;;16.23;4.57;;;6.80;99.90;;;;;;6205321;23;20181;-82
2022/02/25 06:39:16;;;;;;;16.97;4.63;;;6.70;99.90;;;;;;6204724;23;20197;-80
2022/02/25 06:41:43;;;;;;;16.63;2.90;;;6.80;99.90;;;;;;6205106;23;20212;-82
2022/02/25 06:44:10;;;;;;;11.60;3.13;;;6.80;99.90;;;;;;6205650;23;20834;-81
2022/02/25 06:46:37;;;;;;;17.83;3.93;;;6.80;99.90;;;;;;6206545;23;20499;-80
2022/02/25 06:49:05;;;;;;;14.10;3.23;;;6.80;99.90;;;;;;6206064;23;20166;-80
2022/02/25 06:51:32;;;;;;;18.80;4.03;;;6.80;99.90;;;;;;6206340;23;20174;-80
2022/02/25 06:54:01;;;;;;;15.13;4.13;;;6.80;99.90;;;;;;6204731;23;20170;-79
2022/02/25 06:56:28;;;;;;;18.13;4.33;;;6.80;99.90;;;;;;6205352;23;20180;-80
2022/02/25 06:58:55;;;;;;;12.27;3.37;;;6.80;99.90;;;;;;6206264;23;20189;-80
2022/02/25 07:01:21;;;;;;;14.60;3.93;;;6.80;99.90;;;;;;6206585;23;20173;-80
2022/02/25 07:03:48;;;;;;;13.10;3.30;;;6.80;99.90;;;;;;6206539;23;20177;-80
2022/02/25 07:06:15;;;;;;;11.73;3.03;;;6.80;99.90;;;;;;6206158;23;20170;-80
2022/02/25 07:08:42;;;;;;;18.60;3.60;;;6.80;99.90;;;;;;6205183;23;20205;-80
2022/02/25 07:11:10;;;;;;;20.00;3.87;;;6.90;99.90;;;;;;6207023;23;20182;-81
2022/02/25 07:13:37;;;;;;;23.60;3.93;;;6.80;99.90;;;;;;6206824;23;20559;-79
2022/02/25 07:16:04;;;;;;;15.13;4.43;;;6.90;99.90;;;;;;6205404;23;20541;-79
2022/02/25 07:18:31;;;;;;;19.17;3.73;;;6.90;99.90;;;;;;6206081;23;20205;-79
2022/02/25 07:20:58;;;;;;;14.10;3.47;;;6.90;99.90;;;;;;6206173;23;20225;-82
2022/02/25 07:23:24;;;;;;;22.63;3.60;;;6.90;99.90;;;;;;6205612;23;20182;-79
2022/02/25 07:25:51;;;;;;;18.20;3.63;;;6.90;99.90;;;;;;6205870;23;20896;-81
2022/02/25 07:28:19;;;;;;;11.33;3.53;;;6.90;99.90;;;;;;6205774;23;20831;-79
2022/02/25 07:30:46;;;;;;;14.67;3.63;;;6.90;99.90;;;;;;6205405;23;20269;-79
2022/02/25 07:33:14;;;;;;;19.97;4.10;;;6.90;99.90;;;;;;6205268;23;20178;-79
2022/02/25 07:35:40;;;;;;;14.00;3.90;;;7.00;99.90;;;;;;6204672;23;20174;-80
2022/02/25 07:38:07;;;;;;;18.77;4.37;;;7.00;99.90;;;;;;6205190;23;20173;-79
2022/02/25 07:40:34;;;;;;;19.07;4.57;;;7.00;99.90;;;;;;6205673;23;20774;-85
2022/02/25 07:43:01;;;;;;;23.47;4.43;;;7.10;99.90;;;;;;6204360;23;20181;-78
2022/02/25 07:45:29;;;;;;;17.73;4.10;;;7.10;99.90;;;;;;6205866;23;20174;-77
2022/02/25 07:47:56;;;;;;;21.57;4.80;;;7.10;99.90;;;;;;6204099;23;20182;-79
2022/02/25 07:50:22;;;;;;;12.67;3.00;;;7.10;99.90;;;;;;6204953;23;20887;-78
2022/02/25 07:52:49;;;;;;;20.43;4.53;;;7.10;99.90;;;;;;6203184;23;20201;-79
2022/02/25 07:55:16;;;;;;;15.83;2.80;;;7.10;99.90;;;;;;6204150;23;20174;-79
2022/02/25 07:57:43;;;;;;;17.20;3.00;;;7.20;99.90;;;;;;6203091;23;20224;-79
2022/02/25 08:00:15;;;;;;;15.33;3.43;;;7.20;99.90;;;;;;6203978;23;20275;-79
2022/02/25 08:06:05;;;;;;;19.90;4.40;;;7.40;99.90;;;;;;6106391;23;20149;-80
2022/02/25 08:08:32;;;;;;;15.03;3.80;;;7.50;99.90;;;;;;6204760;23;20208;-78
2022/02/25 08:10:59;;;;;;;25.40;4.40;;;7.60;99.90;;;;;;6204262;23;20512;-80
2022/02/25 08:13:26;;;;;;;17.37;3.97;;;7.60;99.90;;;;;;6203490;23;20177;-81
2022/02/25 08:15:53;;;;;;;20.03;4.43;;;7.60;99.90;;;;;;6204485;23;20473;-80
2022/02/25 08:18:19;;;;;;;11.63;3.50;;;7.60;99.90;;;;;;6204969;23;20165;-79
2022/02/25 08:24:17;;;;;;;14.20;3.17;;;7.50;99.90;;;;;;6173430;23;20174;-81
2022/02/25 08:26:45;;;;;;;17.07;4.07;;;7.50;99.90;;;;;;6204526;23;20476;-80
2022/02/25 08:29:12;;;;;;;22.60;3.53;;;7.50;99.90;;;;;;6204559;23;20178;-80
2022/02/25 08:31:41;;;;;;;22.03;4.73;;;7.50;99.90;;;;;;6204603;23;20184;-79
2022/02/25 08:34:09;;;;;;;21.07;5.03;;;7.50;99.90;;;;;;6205294;23;20174;-79
2022/02/25 08:36:36;;;;;;;23.57;4.37;;;7.50;99.90;;;;;;6205038;23;20174;-80
2022/02/25 08:39:03;;;;;;;30.00;5.67;;;7.50;99.90;;;;;;6204542;23;20204;-80
2022/02/25 08:41:32;;;;;;;18.00;4.97;;;7.50;99.90;;;;;;6205638;23;20198;-80
2022/02/25 08:43:59;;;;;;;22.23;4.50;;;7.50;99.90;;;;;;6204815;23;20216;-79
2022/02/25 08:46:27;;;;;;;24.53;5.37;;;7.50;99.90;;;;;;6204439;23;20177;-80
2022/02/25 08:48:54;;;;;;;16.20;4.60;;;7.60;99.90;;;;;;6204217;23;20181;-78
2022/02/25 08:51:21;;;;;;;16.53;4.40;;;7.60;99.90;;;;;;6207210;23;20178;-79
2022/02/25 08:53:48;;;;;;;14.70;4.00;;;7.60;99.90;;;;;;6207142;23;20166;-80
2022/02/25 08:56:14;;;;;;;29.93;5.93;;;7.60;99.90;;;;;;6207197;23;20181;-80
2022/02/25 08:58:43;;;;;;;23.37;5.30;;;7.70;99.90;;;;;;6206826;23;20190;-79
2022/02/25 09:01:10;;;;;;;20.90;4.50;;;7.70;99.90;;;;;;6206844;23;20201;-79
2022/02/25 09:03:36;;;;;;;19.53;4.63;;;7.70;99.90;;;;;;6207581;23;20174;-78
2022/02/25 09:06:03;;;;;;;24.73;4.63;;;7.80;99.90;;;;;;6207205;23;20652;-78
2022/02/25 09:08:30;;;;;;;18.23;4.00;;;7.90;99.90;;;;;;6205255;23;20424;-79
2022/02/25 09:10:57;;;;;;;20.63;5.07;;;7.90;99.90;;;;;;6206861;23;20174;-79
2022/02/25 09:13:24;;;;;;;19.27;3.67;;;7.90;99.90;;;;;;6207446;23;20503;-79
2022/02/25 09:15:54;;;;;;;20.43;3.60;;;7.90;99.90;;;;;;6207590;23;20185;-80
2022/02/25 09:18:21;;;;;;;17.43;3.33;;;7.90;99.90;;;;;;6207059;23;20176;-79
2022/02/25 09:20:48;;;;;;;17.37;4.17;;;7.90;99.90;;;;;;6206557;23;20194;-80
2022/02/25 09:23:15;;;;;;;18.47;3.70;;;8.00;99.90;;;;;;6206593;23;20176;-80
2022/02/25 09:25:41;;;;;;;19.73;4.23;;;8.00;99.90;;;;;;6205552;23;20489;-81
2022/02/25 09:28:09;;;;;;;21.23;4.27;;;8.00;99.90;;;;;;6205931;23;20174;-80
2022/02/25 09:30:36;;;;;;;12.50;4.13;;;8.10;99.90;;;;;;6206147;23;20174;-80
2022/02/25 09:33:05;;;;;;;23.60;4.43;;;8.10;99.90;;;;;;6206424;23;20178;-78
2022/02/25 09:35:32;;;;;;;20.87;3.73;;;8.10;99.90;;;;;;6205194;23;20178;-79
2022/02/25 09:37:58;;;;;;;16.60;3.57;;;8.10;99.90;;;;;;6201676;23;20163;-79
2022/02/25 09:40:25;;;;;;;15.50;4.27;;;8.10;99.90;;;;;;6203146;23;20204;-79
2022/02/25 09:42:53;;;;;;;21.43;3.57;;;8.10;99.90;;;;;;6202946;23;20182;-79
2022/02/25 09:45:20;;;;;;;17.80;4.60;;;8.20;99.90;;;;;;6203013;23;20174;-79
2022/02/25 09:47:47;;;;;;;26.50;4.57;;;8.20;99.90;;;;;;6203162;23;20182;-79
2022/02/25 09:50:17;;;;;;;18.03;4.60;;;8.20;99.90;;;;;;6203101;23;20178;-78
2022/02/25 09:52:46;;;;;;;17.27;3.27;;;8.10;99.90;;;;;;6202534;23;20196;-78
2022/02/25 09:55:21;;;;;;;20.23;4.70;;;8.10;99.90;;;;;;6203506;23;20436;-78
2022/02/25 09:57:48;;;;;;;16.47;3.93;;;8.10;99.90;;;;;;6202722;23;20193;-78
2022/02/25 10:00:17;;;;;;;18.97;4.17;;;8.20;99.90;;;;;;6202823;23;20198;-79
2022/02/25 10:02:47;;;;;;;17.33;4.10;;;8.20;99.90;;;;;;6201149;23;20181;-79
2022/02/25 10:05:19;;;;;;;17.93;3.30;;;8.30;99.90;;;;;;6202697;23;20182;-79
2022/02/25 10:07:46;;;;;;;17.10;3.13;;;8.30;99.90;;;;;;6202612;23;20209;-79
2022/02/25 10:10:15;;;;;;;21.50;4.17;;;8.40;99.90;;;;;;6202639;23;20448;-80
2022/02/25 10:12:46;;;;;;;16.07;3.57;;;8.30;99.90;;;;;;6203402;23;20583;-79
2022/02/25 10:15:14;;;;;;;18.87;3.63;;;8.30;99.90;;;;;;6202741;23;20181;-80
2022/02/25 10:17:41;;;;;;;14.47;4.53;;;8.40;99.90;;;;;;6202408;23;20177;-78
2022/02/25 10:20:08;;;;;;;17.20;3.30;;;8.50;99.90;;;;;;6202932;23;20202;-79
2022/02/25 10:22:38;;;;;;;16.80;3.30;;;8.50;99.90;;;;;;6203343;23;20178;-80
2022/02/25 10:25:07;;;;;;;15.83;2.80;;;8.50;99.90;;;;;;6202431;23;20190;-80
2022/02/25 10:27:36;;;;;;;13.00;3.37;;;8.60;99.90;;;;;;6202769;23;20177;-79
2022/02/25 10:30:07;;;;;;;20.97;4.73;;;8.70;99.90;;;;;;6202371;23;20189;-78
2022/02/25 10:32:37;;;;;;;16.87;4.90;;;8.90;99.90;;;;;;6202253;23;20185;-77
2022/02/25 10:35:22;;;;;;;18.63;4.20;;;9.10;99.90;;;;;;6202883;23;20190;-77
2022/02/25 10:38:05;;;;;;;21.13;3.70;;;9.10;99.90;;;;;;6203035;23;20220;-77
2022/02/25 10:40:34;;;;;;;15.60;3.23;;;9.00;99.90;;;;;;6203627;23;20202;-78
2022/02/25 10:43:02;;;;;;;16.17;3.90;;;8.90;99.90;;;;;;6201881;23;20237;-78
2022/02/25 10:45:32;;;;;;;17.83;4.57;;;8.90;99.90;;;;;;6202707;23;20454;-79
2022/02/25 10:48:01;;;;;;;15.73;3.77;;;8.80;99.90;;;;;;6202791;23;20180;-78
2022/02/25 10:50:28;;;;;;;19.03;3.93;;;8.80;99.90;;;;;;6206541;22;20209;-79
2022/02/25 10:52:57;;;;;;;16.07;3.77;;;8.70;99.90;;;;;;6233129;23;20192;-80
2022/02/25 10:55:27;;;;;;;21.50;5.53;;;8.70;99.90;;;;;;6235190;23;20170;-80
2022/02/25 10:57:57;;;;;;;12.37;3.57;;;8.60;99.90;;;;;;6217327;23;20198;-79
2022/02/25 11:00:26;;;;;;;17.70;3.93;;;8.70;99.90;;;;;;6203928;23;20213;-82
2022/02/25 11:02:56;;;;;;;17.43;4.57;;;8.70;99.90;;;;;;6204972;23;20594;-78
2022/02/25 11:05:25;;;;;;;18.17;4.27;;;8.80;99.90;;;;;;6205384;23;20174;-77
2022/02/25 11:07:54;;;;;;;16.90;4.07;;;8.90;99.90;;;;;;6203631;23;20519;-79
2022/02/25 11:10:24;;;;;;;14.40;4.73;;;9.00;99.90;;;;;;6204847;23;20170;-79
2022/02/25 11:12:52;;;;;;;13.60;2.93;;;9.10;99.90;;;;;;6204033;23;20193;-78
2022/02/25 11:15:22;;;;;;;14.50;4.03;;;9.10;99.90;;;;;;6204024;23;20759;-79
2022/02/25 11:17:50;;;;;;;9.20;2.73;;;9.20;99.90;;;;;;6203800;23;20240;-79
2022/02/25 11:20:22;;;;;;;18.17;4.17;;;9.30;99.90;;;;;;6202944;23;21101;-79
2022/02/25 11:22:52;;;;;;;21.93;3.97;;;9.40;99.90;;;;;;6203758;23;20903;-79
2022/02/25 11:25:19;;;;;;;14.27;3.93;;;9.40;99.90;;;;;;6203629;23;20877;-79
2022/02/25 11:27:48;;;;;;;14.57;3.90;;;9.50;99.90;;;;;;6204226;23;20170;-79
2022/02/25 11:30:21;;;;;;;12.80;3.57;;;9.40;99.90;;;;;;6205100;23;20181;-80
2022/02/25 11:32:55;;;;;;;16.00;4.23;;;9.30;99.90;;;;;;6204519;23;20919;-79
2022/02/25 11:35:24;;;;;;;18.67;4.07;;;9.20;99.90;;;;;;6204370;23;20193;-79
2022/02/25 11:37:53;;;;;;;21.73;3.33;;;9.10;99.90;;;;;;6204471;23;20224;-80
2022/02/25 11:40:47;;;;;;;19.07;4.20;;;9.10;99.90;;;;;;6204611;23;20634;-80
2022/02/25 11:43:16;;;;;;;27.23;4.87;;;9.10;99.90;;;;;;6204975;23;20177;-80
2022/02/25 11:45:49;;;;;;;19.20;4.03;;;9.00;99.90;;;;;;6203574;23;20170;-80
2022/02/25 11:48:20;;;;;;;19.47;4.00;;;9.00;99.90;;;;;;6204106;23;20181;-82
2022/02/25 11:50:51;;;;;;;19.23;5.10;;;9.10;99.90;;;;;;6203447;23;20913;-80
2022/02/25 11:53:22;;;;;;;20.03;4.47;;;9.20;99.90;;;;;;6205028;23;20182;-79
2022/02/25 11:55:50;;;;;;;19.77;3.87;;;9.20;99.90;;;;;;6203166;23;20563;-79
2022/02/25 11:58:46;;;;;;;18.03;4.67;;;9.20;99.90;;;;;;6204785;23;20231;-79
2022/02/25 12:01:14;;;;;;;22.10;4.97;;;9.30;99.90;;;;;;6204419;23;20301;-78
2022/02/25 12:04:07;;;;;;;17.97;4.23;;;9.20;99.90;;;;;;6203531;23;20170;-79
2022/02/25 12:07:00;;;;;;;16.70;4.97;;;9.10;99.90;;;;;;6204905;23;20174;-79
2022/02/25 12:09:44;;;;;;;24.37;5.23;;;9.10;99.90;;;;;;6187883;23;20178;-78
2022/02/25 12:12:33;;;;;;;22.00;4.20;;;9.10;99.90;;;;;;6204340;23;20186;-78
2022/02/25 12:15:04;;;;;;;15.63;3.57;;;9.30;99.90;;;;;;6205275;23;20178;-78
2022/02/25 12:17:44;;;;;;;20.17;3.40;;;9.30;99.90;;;;;;6204097;23;20285;-77
2022/02/25 12:20:14;;;;;;;18.47;3.73;;;9.30;99.90;;;;;;6203526;23;20582;-79
2022/02/25 12:22:49;;;;;;;23.07;4.70;;;9.40;99.90;;;;;;6204442;23;20173;-80
2022/02/25 12:25:46;;;;;;;15.93;4.23;;;9.40;99.90;;;;;;6204875;23;20177;-78
2022/02/25 12:28:33;;;;;;;25.50;4.53;;;9.50;99.90;;;;;;6207489;23;20172;-78
2022/02/25 12:31:03;;;;;;;19.67;4.13;;;9.50;99.90;;;;;;6205123;23;20571;-80
2022/02/25 12:33:30;;;;;;;15.70;4.57;;;9.50;99.90;;;;;;6206284;23;20180;-81
2022/02/25 12:35:58;;;;;;;15.40;4.73;;;9.60;99.90;;;;;;6207391;23;20185;-80
2022/02/25 12:38:26;;;;;;;15.20;4.30;;;9.60;99.90;;;;;;6207222;23;20170;-83
2022/02/25 12:40:53;;;;;;;21.83;4.77;;;9.60;99.90;;;;;;6207085;23;20204;-79
2022/02/25 12:43:21;;;;;;;24.77;4.47;;;9.50;99.90;;;;;;6207907;23;20181;-79
2022/02/25 12:45:48;;;;;;;21.57;4.50;;;9.60;99.90;;;;;;6207001;23;20208;-83
2022/02/25 12:48:17;;;;;;;12.27;2.80;;;9.60;99.90;;;;;;6206754;23;20174;-78
2022/02/25 12:50:45;;;;;;;5.47;1.80;;;9.40;99.90;;;;;;6205902;23;20606;-78
2022/02/25 12:53:12;;;;;;;10.53;1.90;;;9.10;99.90;;;;;;6206326;23;20172;-78
2022/02/25 12:55:53;;;;;;;9.57;2.87;;;8.80;99.90;;;;;;6205971;23;20859;-78
2022/02/25 12:58:20;;;;;;;19.93;2.73;;;8.60;99.90;;;;;;6206902;23;20194;-80
2022/02/25 13:00:56;;;;;;;12.80;3.17;;;8.40;99.90;;;;;;6206193;23;20202;-79
2022/02/25 13:03:24;;;;;;;10.00;2.90;;;8.30;99.90;;;;;;6206157;23;20174;-80
2022/02/25 13:05:53;;;;;;;10.60;2.87;;;8.20;99.90;;;;;;6205496;23;20614;-79
2022/02/25 13:08:20;;;;;;;14.30;2.70;;;8.20;99.90;;;;;;6205878;23;20185;-81